Time;durP1;ratioP1;P1;durP2;ratioP2;P2;SDS_P1;SDS_P2;PMS_P1;PMS_P2;Temp;Humidity;BMP_temperature;BMP_pressure;BME280_temperature;BME280_humidity;BME280_pressure;Samples;Min_cycle;Max_cycle;Signal;HPM_P1;HPM_P2
2022/01/27 00:00:45;;;;;;;19.45;9.68;;;6.10;99.90;;;;;;5092149;28;20105;-71
2022/01/27 00:05:41;;;;;;;17.20;9.00;;;6.40;99.90;;;;;;5115766;28;20044;-71
2022/01/27 00:13:00;;;;;;;22.77;10.60;;;6.80;99.90;;;;;;5098865;28;20043;-72
2022/01/27 00:15:31;;;;;;;18.27;9.15;;;6.10;99.90;;;;;;5099524;28;20117;-70
2022/01/27 00:18:01;;;;;;;23.42;10.02;;;6.00;99.90;;;;;;5099519;28;20066;-71
2022/01/27 00:20:27;;;;;;;18.73;8.98;;;6.40;99.90;;;;;;5115614;28;20058;-72
2022/01/27 00:22:53;;;;;;;19.83;9.25;;;6.30;99.90;;;;;;5116561;28;20194;-71
2022/01/27 00:25:19;;;;;;;19.75;10.07;;;6.20;99.90;;;;;;5116497;28;20078;-72
2022/01/27 00:27:45;;;;;;;18.38;10.40;;;6.10;99.90;;;;;;5099041;28;20086;-72
2022/01/27 00:30:11;;;;;;;22.20;11.07;;;6.10;99.90;;;;;;5115300;28;20089;-69
2022/01/27 00:32:37;;;;;;;23.88;11.70;;;6.10;99.90;;;;;;5115196;28;20408;-71
2022/01/27 00:35:05;;;;;;;22.23;10.38;;;6.70;99.90;;;;;;5098061;28;20181;-71
2022/01/27 00:37:31;;;;;;;25.42;10.10;;;5.90;99.90;;;;;;5116010;28;20142;-71
2022/01/27 00:39:56;;;;;;;22.42;10.57;;;6.00;99.90;;;;;;5115100;28;20118;-70
2022/01/27 00:42:24;;;;;;;22.70;10.07;;;6.20;99.90;;;;;;5099002;28;20140;-71
2022/01/27 00:44:50;;;;;;;22.88;10.00;;;6.50;99.90;;;;;;5115114;28;20556;-70
2022/01/27 00:47:16;;;;;;;21.77;9.93;;;6.30;99.90;;;;;;5097208;28;20169;-70
2022/01/27 00:49:42;;;;;;;21.00;10.05;;;6.30;99.90;;;;;;5097793;28;20063;-70
2022/01/27 00:52:12;;;;;;;21.35;9.73;;;6.00;99.90;;;;;;5081439;28;20140;-72
2022/01/27 00:54:38;;;;;;;27.55;11.98;;;6.10;99.90;;;;;;5082165;28;20047;-70
2022/01/27 00:57:24;;;;;;;18.85;10.00;;;6.10;99.90;;;;;;5098766;28;20050;-70
2022/01/27 00:59:59;;;;;;;19.08;9.68;;;6.10;99.90;;;;;;5084931;28;20059;-71
2022/01/27 01:02:38;;;;;;;21.48;10.93;;;6.30;99.90;;;;;;5084260;28;20043;-71
2022/01/27 01:07:36;;;;;;;27.13;11.57;;;6.10;99.90;;;;;;5115829;28;20047;-71
2022/01/27 01:15:23;;;;;;;21.70;11.55;;;6.00;99.90;;;;;;5115094;28;20422;-71
2022/01/27 01:20:32;;;;;;;25.25;11.45;;;5.90;99.90;;;;;;5115036;28;20055;-71
2022/01/27 01:31:16;;;;;;;24.17;12.25;;;6.20;99.90;;;;;;5115480;28;20464;-71
2022/01/27 01:33:44;;;;;;;22.40;11.52;;;6.20;99.90;;;;;;5115443;28;20076;-71
2022/01/27 01:36:16;;;;;;;24.10;10.80;;;6.30;99.90;;;;;;5114384;28;20047;-70
2022/01/27 01:38:44;;;;;;;24.52;12.05;;;6.10;99.90;;;;;;5115086;28;20054;-70
2022/01/27 01:41:10;;;;;;;23.17;12.15;;;5.90;99.90;;;;;;5097357;28;20054;-70
2022/01/27 01:43:36;;;;;;;22.35;12.50;;;6.00;99.90;;;;;;5113835;28;20044;-70
2022/01/27 01:46:02;;;;;;;24.17;12.05;;;6.20;99.90;;;;;;5115133;27;20051;-70
2022/01/27 01:48:28;;;;;;;22.90;12.02;;;6.10;99.90;;;;;;5115101;28;20042;-69
2022/01/27 01:50:55;;;;;;;23.35;11.75;;;6.20;99.90;;;;;;5114355;28;20055;-69
2022/01/27 01:53:20;;;;;;;22.58;11.38;;;6.20;99.90;;;;;;5114443;28;20054;-70
2022/01/27 01:55:46;;;;;;;25.83;12.73;;;6.40;99.90;;;;;;5114136;28;20043;-70
2022/01/27 01:58:12;;;;;;;22.83;13.00;;;5.80;99.90;;;;;;5115765;28;20130;-69
2022/01/27 02:00:38;;;;;;;23.33;11.30;;;5.90;99.90;;;;;;5114313;28;20122;-69
2022/01/27 02:03:04;;;;;;;22.35;12.02;;;6.00;99.90;;;;;;5115149;28;20040;-69
2022/01/27 02:05:35;;;;;;;24.67;12.20;;;6.10;99.90;;;;;;5096897;28;20100;-69
2022/01/27 02:08:33;;;;;;;24.55;12.45;;;5.90;99.90;;;;;;5114170;28;20548;-69
2022/01/27 02:19:16;;;;;;;19.52;11.13;;;5.90;99.90;;;;;;5114801;28;20059;-70
2022/01/27 02:22:03;;;;;;;23.15;11.20;;;6.00;99.90;;;;;;5115732;28;20040;-69
2022/01/27 02:24:33;;;;;;;23.02;12.00;;;5.80;99.90;;;;;;5113751;28;20058;-69
2022/01/27 02:27:00;;;;;;;22.70;11.23;;;5.90;99.90;;;;;;5115046;28;20148;-69
2022/01/27 02:29:26;;;;;;;21.02;11.90;;;5.80;99.90;;;;;;5114707;28;20040;-70
2022/01/27 02:31:54;;;;;;;24.02;11.55;;;5.90;99.90;;;;;;5113925;28;20130;-70
2022/01/27 02:34:21;;;;;;;23.38;11.55;;;6.00;99.90;;;;;;5113447;28;20054;-69
2022/01/27 02:36:47;;;;;;;24.90;11.80;;;6.30;99.90;;;;;;5114593;28;20043;-69
2022/01/27 02:39:14;;;;;;;22.98;11.88;;;6.40;99.90;;;;;;5115182;28;20065;-70
2022/01/27 02:41:48;;;;;;;23.05;12.48;;;6.00;99.90;;;;;;5114541;28;20108;-70
2022/01/27 02:44:55;;;;;;;22.92;12.20;;;5.90;99.90;;;;;;5114224;28;20051;-70
2022/01/27 02:47:23;;;;;;;21.25;11.43;;;5.80;99.90;;;;;;5085033;28;20406;-70
2022/01/27 02:49:49;;;;;;;24.55;12.13;;;6.10;99.90;;;;;;5114343;28;20063;-69
2022/01/27 02:52:15;;;;;;;25.85;12.40;;;5.80;99.90;;;;;;5113757;28;20086;-70
2022/01/27 02:54:42;;;;;;;22.35;11.80;;;5.90;99.90;;;;;;5114988;28;20454;-69
2022/01/27 02:57:08;;;;;;;23.65;12.35;;;6.10;99.90;;;;;;5114374;28;20048;-69
2022/01/27 02:59:34;;;;;;;23.25;12.25;;;6.10;99.90;;;;;;5114379;28;20043;-69
2022/01/27 03:02:00;;;;;;;24.13;12.10;;;6.20;99.90;;;;;;5114331;28;20176;-70
2022/01/27 03:04:26;;;;;;;22.77;12.15;;;5.90;99.90;;;;;;5114829;28;20043;-70
2022/01/27 03:06:53;;;;;;;21.73;11.95;;;6.00;99.90;;;;;;5113161;28;20410;-71
2022/01/27 03:09:18;;;;;;;23.67;12.65;;;6.20;99.90;;;;;;5113803;28;20040;-73
2022/01/27 03:11:49;;;;;;;26.08;12.88;;;5.90;99.90;;;;;;5112726;28;20047;-70
2022/01/27 03:14:20;;;;;;;27.67;12.48;;;5.90;99.90;;;;;;5114120;28;20051;-72
2022/01/27 03:16:47;;;;;;;27.05;11.15;;;6.10;99.90;;;;;;5115024;28;20484;-70
2022/01/27 03:19:13;;;;;;;24.88;13.05;;;6.10;99.90;;;;;;5113123;28;20097;-69
2022/01/27 03:21:39;;;;;;;23.10;12.68;;;5.80;99.90;;;;;;5113950;28;20044;-70
2022/01/27 03:24:05;;;;;;;27.65;12.60;;;6.00;99.90;;;;;;5112874;28;20039;-70
2022/01/27 03:26:31;;;;;;;26.17;13.65;;;5.90;99.90;;;;;;5079494;28;20437;-70
2022/01/27 03:28:58;;;;;;;27.48;13.93;;;6.00;99.90;;;;;;5112988;28;20356;-69
2022/01/27 03:31:24;;;;;;;27.83;14.27;;;6.00;99.90;;;;;;5113343;28;20047;-70
2022/01/27 03:33:50;;;;;;;24.50;13.05;;;6.20;99.90;;;;;;5113834;28;20055;-71
2022/01/27 03:36:17;;;;;;;25.20;13.05;;;5.80;99.90;;;;;;5095995;28;20052;-72
2022/01/27 03:38:43;;;;;;;24.73;13.48;;;6.40;99.90;;;;;;5114541;28;20425;-70
2022/01/27 03:41:10;;;;;;;24.30;13.00;;;5.90;99.90;;;;;;5113904;28;20051;-70
2022/01/27 03:43:38;;;;;;;26.27;13.18;;;6.00;99.90;;;;;;5113477;28;20130;-72
2022/01/27 03:46:05;;;;;;;25.48;12.75;;;5.90;99.90;;;;;;5113877;28;20123;-70
2022/01/27 03:48:32;;;;;;;24.13;12.95;;;6.00;99.90;;;;;;5113992;28;20123;-69
2022/01/27 03:50:58;;;;;;;21.15;12.80;;;5.90;99.90;;;;;;5112083;28;20353;-70
2022/01/27 03:53:24;;;;;;;23.70;13.02;;;6.10;99.90;;;;;;5113690;28;20040;-71
2022/01/27 03:55:49;;;;;;;30.58;13.88;;;6.60;99.90;;;;;;5113714;28;20044;-69
2022/01/27 03:58:15;;;;;;;25.70;13.52;;;5.90;99.90;;;;;;5112694;28;20046;-69
2022/01/27 04:00:41;;;;;;;24.00;12.48;;;5.80;99.90;;;;;;5112727;28;20055;-71
2022/01/27 04:03:10;;;;;;;26.20;12.90;;;6.00;99.90;;;;;;5114333;28;20078;-70
2022/01/27 04:05:43;;;;;;;23.65;13.25;;;6.00;99.90;;;;;;5112581;28;20052;-68
2022/01/27 04:08:13;;;;;;;25.67;12.82;;;6.00;99.90;;;;;;5113209;28;20044;-69
2022/01/27 04:10:39;;;;;;;25.88;12.25;;;6.00;99.90;;;;;;5112547;28;20527;-69
2022/01/27 04:13:07;;;;;;;25.80;12.98;;;6.50;99.90;;;;;;5113450;28;20047;-67
2022/01/27 04:15:34;;;;;;;23.77;12.82;;;6.00;99.90;;;;;;5112830;28;20058;-68
2022/01/27 04:18:00;;;;;;;23.95;12.88;;;6.20;99.90;;;;;;5112289;28;20120;-67
2022/01/27 04:20:26;;;;;;;26.77;12.93;;;6.30;99.90;;;;;;5112226;28;20052;-68
2022/01/27 04:22:52;;;;;;;24.58;13.23;;;6.10;99.90;;;;;;5097396;28;20494;-68
2022/01/27 04:25:18;;;;;;;24.90;12.77;;;6.20;99.90;;;;;;5117613;28;20066;-67
2022/01/27 04:27:49;;;;;;;21.88;11.10;;;6.00;99.90;;;;;;5116644;28;20192;-69
2022/01/27 04:30:17;;;;;;;30.30;12.82;;;6.10;99.90;;;;;;5116615;28;20396;-68
2022/01/27 04:32:51;;;;;;;22.52;11.57;;;6.00;99.90;;;;;;5115730;28;20051;-68
2022/01/27 04:35:20;;;;;;;29.25;13.00;;;6.20;99.90;;;;;;5116583;28;20149;-69
2022/01/27 04:40:25;;;;;;;;;;;6.10;99.90;;;;;;5117856;28;20059;-74
2022/01/27 04:43:06;;;;;;;23.63;13.18;;;6.10;99.90;;;;;;5115396;28;19969;-71
2022/01/27 04:45:58;;;;;;;24.27;12.55;;;6.10;99.90;;;;;;5099472;28;20056;-69
2022/01/27 04:48:22;;;;;;;21.85;11.90;;;6.10;99.90;;;;;;5115934;28;20058;-69
2022/01/27 04:50:50;;;;;;;24.30;12.80;;;6.50;99.90;;;;;;5116733;28;20113;-68
2022/01/27 04:53:34;;;;;;;25.52;12.18;;;6.70;99.90;;;;;;5098533;28;20113;-70
2022/01/27 04:56:00;;;;;;;22.75;12.43;;;6.80;99.90;;;;;;5116967;28;20043;-68
2022/01/27 04:58:32;;;;;;;27.58;13.30;;;6.30;99.90;;;;;;5115332;28;20066;-69
2022/01/27 05:01:01;;;;;;;27.38;12.27;;;6.20;99.90;;;;;;5082666;28;20073;-68
2022/01/27 05:06:10;;;;;;;;;;;6.10;99.90;;;;;;5101537;28;20062;-67
2022/01/27 05:08:36;;;;;;;27.40;13.00;;;6.30;99.90;;;;;;5114824;28;20344;-68
2022/01/27 05:11:09;;;;;;;25.92;12.32;;;6.70;99.90;;;;;;5115760;28;20047;-70
2022/01/27 05:13:50;;;;;;;25.02;12.75;;;6.40;99.90;;;;;;5115433;28;20387;-68
2022/01/27 05:16:16;;;;;;;25.63;12.75;;;6.30;99.90;;;;;;5116660;28;20048;-68
2022/01/27 05:18:42;;;;;;;24.40;12.02;;;6.00;99.90;;;;;;5116485;28;20360;-68
2022/01/27 05:21:07;;;;;;;25.73;12.68;;;6.20;99.90;;;;;;5115303;28;20047;-69
2022/01/27 05:23:33;;;;;;;26.67;12.65;;;6.00;99.90;;;;;;5115858;28;20044;-68
2022/01/27 05:25:59;;;;;;;27.90;13.25;;;6.30;99.90;;;;;;5114747;28;20619;-67
2022/01/27 05:28:25;;;;;;;26.75;12.80;;;6.00;99.90;;;;;;5115712;28;20093;-68
2022/01/27 05:30:51;;;;;;;29.27;12.77;;;6.00;99.90;;;;;;5097793;28;20100;-68
2022/01/27 05:33:17;;;;;;;26.77;12.90;;;6.20;99.90;;;;;;5115638;28;20048;-67
2022/01/27 05:35:46;;;;;;;24.23;11.40;;;6.20;99.90;;;;;;5114414;28;20048;-68
2022/01/27 05:38:15;;;;;;;29.95;13.80;;;6.10;99.90;;;;;;5115264;28;20039;-67
2022/01/27 05:40:42;;;;;;;25.70;13.05;;;6.20;99.90;;;;;;5115641;28;20043;-68
2022/01/27 05:43:09;;;;;;;29.38;13.55;;;6.10;99.90;;;;;;5115412;28;20517;-67
2022/01/27 05:45:35;;;;;;;24.63;13.05;;;5.90;99.90;;;;;;5115393;27;20126;-71
2022/01/27 05:48:00;;;;;;;24.88;13.10;;;6.50;99.90;;;;;;5115847;28;20054;-72
2022/01/27 05:50:26;;;;;;;30.35;12.80;;;5.90;99.90;;;;;;5097012;28;20055;-70
2022/01/27 05:52:52;;;;;;;27.45;14.38;;;6.00;99.90;;;;;;5115584;28;20044;-69
2022/01/27 05:55:18;;;;;;;31.48;14.63;;;6.00;99.90;;;;;;5115804;28;20044;-68
2022/01/27 05:57:43;;;;;;;26.48;12.88;;;6.00;99.90;;;;;;5114157;28;20083;-70
2022/01/27 06:00:10;;;;;;;28.05;12.55;;;6.00;99.90;;;;;;5114190;28;20040;-70
2022/01/27 06:02:37;;;;;;;34.17;14.40;;;5.80;99.90;;;;;;5114891;28;20044;-68
2022/01/27 06:05:03;;;;;;;27.17;14.60;;;5.80;99.90;;;;;;5114780;28;20100;-69
2022/01/27 06:07:30;;;;;;;31.70;13.85;;;5.70;99.90;;;;;;5114898;28;20075;-69
2022/01/27 06:09:56;;;;;;;30.00;13.43;;;6.20;99.90;;;;;;5113867;28;20058;-69
2022/01/27 06:12:22;;;;;;;25.38;12.50;;;6.00;99.90;;;;;;5113981;28;20039;-69
2022/01/27 06:14:48;;;;;;;28.17;12.48;;;6.00;99.90;;;;;;5114864;28;20556;-68
2022/01/27 06:17:14;;;;;;;28.70;12.63;;;6.00;99.90;;;;;;5096606;28;20056;-68
2022/01/27 06:19:44;;;;;;;26.92;12.45;;;5.90;99.90;;;;;;5113757;28;20047;-68
2022/01/27 06:22:11;;;;;;;25.63;13.23;;;6.20;99.90;;;;;;5113993;28;20439;-69
2022/01/27 06:24:46;;;;;;;26.02;12.85;;;6.00;99.90;;;;;;5114389;28;20043;-69
2022/01/27 06:27:12;;;;;;;21.95;11.40;;;6.10;99.90;;;;;;5097075;28;20080;-70
2022/01/27 06:29:39;;;;;;;22.33;11.20;;;6.70;99.90;;;;;;5113501;28;20129;-69
2022/01/27 06:32:05;;;;;;;30.48;12.75;;;6.50;99.90;;;;;;5113375;28;20097;-69
2022/01/27 06:34:31;;;;;;;24.38;12.05;;;5.90;99.90;;;;;;5113339;28;20375;-69
2022/01/27 06:36:57;;;;;;;27.15;11.95;;;6.00;99.90;;;;;;5114798;28;20040;-70
2022/01/27 06:39:23;;;;;;;23.02;11.75;;;5.80;99.90;;;;;;5114358;28;20483;-69
2022/01/27 06:41:49;;;;;;;22.20;11.45;;;5.80;99.90;;;;;;5113289;28;20094;-70
2022/01/27 06:44:14;;;;;;;19.67;10.48;;;5.80;99.90;;;;;;5113955;28;20494;-70
2022/01/27 06:46:40;;;;;;;21.58;10.35;;;5.90;99.90;;;;;;5112768;28;20043;-69
2022/01/27 06:49:06;;;;;;;24.23;10.43;;;6.20;99.90;;;;;;5096200;28;20535;-68
2022/01/27 06:51:32;;;;;;;19.95;10.30;;;6.40;99.90;;;;;;5113508;28;20066;-68
2022/01/27 06:53:59;;;;;;;19.60;10.30;;;6.30;99.90;;;;;;5114277;28;20485;-68
2022/01/27 06:56:25;;;;;;;21.42;10.20;;;6.30;99.90;;;;;;5114214;28;20059;-72
2022/01/27 06:58:52;;;;;;;19.73;10.25;;;6.10;99.90;;;;;;5113936;28;20391;-68
2022/01/27 07:01:18;;;;;;;18.75;10.23;;;6.00;99.90;;;;;;5112976;28;20070;-69
2022/01/27 07:03:44;;;;;;;18.73;9.40;;;6.10;99.90;;;;;;5112746;28;20043;-68
2022/01/27 07:06:11;;;;;;;16.60;8.75;;;6.20;99.90;;;;;;5113454;28;20097;-68
2022/01/27 07:08:36;;;;;;;19.77;9.50;;;6.70;99.90;;;;;;5114059;28;20100;-68
2022/01/27 07:11:02;;;;;;;15.23;8.18;;;6.40;99.90;;;;;;5096690;28;20039;-69
2022/01/27 07:13:28;;;;;;;19.10;9.00;;;6.30;99.90;;;;;;5113335;28;20047;-68
2022/01/27 07:15:55;;;;;;;19.17;8.57;;;6.30;99.90;;;;;;5095952;28;20044;-69
2022/01/27 07:18:21;;;;;;;15.38;7.93;;;6.10;99.90;;;;;;5113903;28;20044;-69
2022/01/27 07:20:47;;;;;;;13.93;7.57;;;6.00;99.90;;;;;;5095997;28;20051;-68
2022/01/27 07:23:12;;;;;;;19.77;8.75;;;6.80;99.90;;;;;;5113906;28;20083;-69
2022/01/27 07:25:38;;;;;;;18.65;8.52;;;6.10;99.90;;;;;;5113939;28;20044;-69
2022/01/27 07:28:04;;;;;;;17.63;8.85;;;6.30;99.90;;;;;;5112935;28;20387;-69
2022/01/27 07:30:30;;;;;;;15.85;8.50;;;6.30;99.90;;;;;;5096736;28;20054;-70
2022/01/27 07:32:55;;;;;;;16.92;7.68;;;6.20;99.90;;;;;;5096560;28;20116;-69
2022/01/27 07:35:21;;;;;;;17.08;7.40;;;6.10;99.90;;;;;;5113919;28;20483;-69
2022/01/27 07:37:47;;;;;;;15.88;7.30;;;7.10;99.90;;;;;;5112760;28;20044;-70
2022/01/27 07:40:13;;;;;;;15.60;7.60;;;6.20;99.90;;;;;;5114534;28;20044;-72
2022/01/27 07:42:39;;;;;;;17.95;7.97;;;6.30;99.90;;;;;;5114112;28;20039;-71
2022/01/27 07:45:07;;;;;;;14.25;7.80;;;6.60;99.90;;;;;;5113679;28;20043;-70
2022/01/27 07:47:33;;;;;;;11.52;6.53;;;6.30;99.90;;;;;;5113582;28;20105;-70
2022/01/27 07:49:59;;;;;;;13.40;6.90;;;6.50;99.90;;;;;;5095173;28;20077;-70
2022/01/27 07:52:25;;;;;;;12.30;5.90;;;6.70;99.90;;;;;;5112442;28;20040;-70
2022/01/27 07:54:51;;;;;;;12.15;6.18;;;6.60;99.90;;;;;;5113641;28;20501;-71
2022/01/27 07:57:17;;;;;;;13.88;6.32;;;6.50;99.90;;;;;;5115735;28;20126;-71
2022/01/27 07:59:43;;;;;;;12.95;6.43;;;6.30;99.90;;;;;;5116507;28;20055;-70
2022/01/27 08:02:08;;;;;;;11.15;5.18;;;6.50;99.90;;;;;;5116559;28;20043;-70
2022/01/27 08:04:34;;;;;;;13.50;6.03;;;6.50;99.90;;;;;;5117332;28;20100;-72
2022/01/27 08:07:02;;;;;;;15.93;5.90;;;6.80;99.90;;;;;;5117495;28;20043;-71
2022/01/27 08:09:28;;;;;;;14.85;6.25;;;6.50;99.90;;;;;;5116459;28;20039;-72
2022/01/27 08:11:54;;;;;;;11.25;6.20;;;6.80;99.90;;;;;;5099221;28;20047;-71
2022/01/27 08:14:19;;;;;;;13.80;5.70;;;6.90;99.90;;;;;;5115968;28;20510;-70
2022/01/27 08:16:46;;;;;;;15.05;6.05;;;6.60;99.90;;;;;;5117137;28;20100;-73
2022/01/27 08:19:11;;;;;;;15.30;7.28;;;6.70;99.90;;;;;;5116961;28;20059;-71
2022/01/27 08:21:37;;;;;;;15.02;6.82;;;6.80;99.90;;;;;;5117123;28;20384;-70
2022/01/27 08:24:03;;;;;;;14.65;6.88;;;7.10;99.90;;;;;;5117353;28;20062;-72
2022/01/27 08:26:46;;;;;;;15.18;7.40;;;6.70;99.90;;;;;;5116110;28;20036;-71
2022/01/27 08:29:20;;;;;;;11.90;6.18;;;6.80;99.90;;;;;;5102522;28;20054;-71
2022/01/27 08:34:31;;;;;;;16.30;7.13;;;6.70;99.90;;;;;;5116999;28;20047;-70
2022/01/27 08:36:59;;;;;;;16.77;7.07;;;7.30;99.90;;;;;;5115715;28;20051;-70
2022/01/27 08:39:25;;;;;;;19.45;7.10;;;7.00;99.90;;;;;;5115801;28;20044;-69
2022/01/27 08:41:51;;;;;;;18.88;7.18;;;7.30;99.90;;;;;;5116872;28;20051;-70
2022/01/27 08:44:17;;;;;;;21.52;7.63;;;7.20;99.90;;;;;;5117089;28;20052;-70
2022/01/27 08:46:42;;;;;;;21.08;7.20;;;7.10;99.90;;;;;;5115514;28;20126;-71
2022/01/27 08:49:09;;;;;;;14.30;6.13;;;7.40;99.90;;;;;;5115629;28;20135;-70
2022/01/27 08:51:35;;;;;;;18.77;6.88;;;7.10;99.90;;;;;;5116428;28;20556;-71
2022/01/27 08:54:00;;;;;;;19.33;6.80;;;7.20;99.90;;;;;;5115917;28;20039;-68
2022/01/27 08:56:26;;;;;;;22.35;6.95;;;7.10;99.90;;;;;;5116621;28;20475;-70
2022/01/27 08:58:53;;;;;;;15.88;5.70;;;7.30;99.90;;;;;;5116228;28;20044;-70
2022/01/27 09:01:20;;;;;;;15.48;6.30;;;7.50;99.90;;;;;;5115443;28;20051;-69
2022/01/27 09:03:46;;;;;;;15.43;5.40;;;7.30;99.90;;;;;;5116075;28;20111;-71
2022/01/27 09:06:12;;;;;;;14.13;5.25;;;7.20;99.90;;;;;;5115164;28;20043;-73
2022/01/27 09:08:38;;;;;;;20.33;5.85;;;7.30;99.90;;;;;;5114244;28;20114;-69
2022/01/27 09:11:04;;;;;;;15.18;4.90;;;7.40;99.90;;;;;;5116256;28;20050;-69
2022/01/27 09:13:29;;;;;;;13.70;5.47;;;7.40;99.90;;;;;;5115300;28;20479;-69
2022/01/27 09:15:58;;;;;;;13.68;4.68;;;7.60;99.90;;;;;;5115170;28;20105;-69
2022/01/27 09:18:24;;;;;;;15.90;4.60;;;7.70;99.90;;;;;;5098699;28;20062;-71
2022/01/27 09:20:50;;;;;;;15.07;4.97;;;7.40;99.90;;;;;;5115142;28;20047;-68
2022/01/27 09:23:17;;;;;;;13.75;4.60;;;7.90;99.90;;;;;;5098372;28;20036;-69
2022/01/27 09:25:46;;;;;;;12.50;4.88;;;7.80;99.90;;;;;;5114893;28;20048;-67
2022/01/27 09:28:13;;;;;;;13.35;4.28;;;7.60;99.90;;;;;;5115530;28;20060;-68
2022/01/27 09:30:40;;;;;;;9.60;3.70;;;7.90;99.90;;;;;;5116698;28;20043;-70
2022/01/27 09:33:06;;;;;;;12.15;3.83;;;7.70;99.90;;;;;;5114822;28;20051;-68
2022/01/27 09:35:32;;;;;;;12.30;3.60;;;7.80;99.90;;;;;;5115770;28;20536;-69
2022/01/27 09:37:59;;;;;;;12.70;4.03;;;7.90;99.90;;;;;;5116581;28;20039;-68
2022/01/27 09:40:25;;;;;;;11.68;4.07;;;8.00;99.90;;;;;;5115704;28;20036;-68
2022/01/27 09:42:53;;;;;;;15.20;4.00;;;7.80;99.90;;;;;;5115476;28;20055;-68
2022/01/27 09:45:21;;;;;;;14.95;3.58;;;7.80;99.90;;;;;;5115185;28;20070;-69
2022/01/27 09:48:01;;;;;;;16.90;4.18;;;7.90;99.90;;;;;;5113486;28;20112;-68
2022/01/27 09:53:08;;;;;;;19.63;7.43;;;8.70;99.90;;;;;;5114444;28;20189;-70
2022/01/27 09:55:34;;;;;;;17.70;4.22;;;7.90;99.90;;;;;;5113479;28;20122;-73
2022/01/27 09:58:01;;;;;;;8.55;2.70;;;7.80;99.90;;;;;;5097222;28;20055;-71
2022/01/27 10:00:27;;;;;;;12.43;3.47;;;8.10;99.90;;;;;;5113580;28;20487;-71
2022/01/27 10:03:14;;;;;;;11.82;2.97;;;8.10;99.90;;;;;;5114397;28;20052;-70
2022/01/27 10:05:44;;;;;;;11.23;3.10;;;7.90;99.90;;;;;;5115103;28;20044;-69
2022/01/27 10:08:17;;;;;;;8.52;2.70;;;7.90;99.90;;;;;;5115040;28;20134;-70
2022/01/27 10:10:49;;;;;;;8.80;2.63;;;8.20;99.90;;;;;;5114542;28;20478;-70
2022/01/27 10:13:35;;;;;;;11.05;2.53;;;8.00;99.90;;;;;;5096565;28;20063;-71
2022/01/27 10:16:01;;;;;;;11.45;3.03;;;7.80;99.90;;;;;;5115602;28;20054;-69
2022/01/27 10:18:34;;;;;;;9.00;2.70;;;8.00;99.90;;;;;;5114945;28;20467;-69
2022/01/27 10:21:08;;;;;;;11.65;2.95;;;8.10;99.90;;;;;;5114829;28;20059;-70
2022/01/27 10:23:41;;;;;;;9.88;2.50;;;8.10;99.90;;;;;;5113589;28;20530;-68
2022/01/27 10:26:14;;;;;;;11.48;2.45;;;8.20;99.90;;;;;;5114137;28;20054;-68
2022/01/27 10:31:19;;;;;;;11.73;2.53;;;8.50;99.90;;;;;;5115559;28;20252;-70
2022/01/27 10:33:47;;;;;;;12.05;2.55;;;8.20;99.90;;;;;;5115255;28;20044;-72
2022/01/27 10:36:40;;;;;;;10.00;2.17;;;8.10;99.90;;;;;;5114683;28;20043;-71
2022/01/27 10:39:15;;;;;;;8.02;2.40;;;8.30;99.90;;;;;;5113252;28;20073;-69
2022/01/27 10:42:06;;;;;;;14.95;2.38;;;8.30;99.90;;;;;;5114200;28;20055;-71
2022/01/27 10:44:42;;;;;;;11.55;2.80;;;8.30;99.90;;;;;;5114391;27;20348;-69
2022/01/27 10:47:19;;;;;;;10.25;2.20;;;8.40;99.90;;;;;;5114181;28;20499;-70
2022/01/27 10:49:57;;;;;;;12.48;2.85;;;8.40;99.90;;;;;;5114935;28;20101;-70
2022/01/27 10:52:38;;;;;;;10.15;2.28;;;8.30;99.90;;;;;;5115019;28;20051;-70
2022/01/27 10:55:12;;;;;;;12.05;2.72;;;8.30;99.90;;;;;;5115020;28;20043;-69
2022/01/27 10:57:38;;;;;;;11.05;2.10;;;8.30;99.90;;;;;;5113762;28;20043;-70
2022/01/27 11:00:09;;;;;;;9.38;2.60;;;8.40;99.90;;;;;;5113116;28;20244;-70
2022/01/27 11:02:58;;;;;;;6.28;1.75;;;8.40;99.90;;;;;;5114285;28;20050;-72
2022/01/27 11:05:29;;;;;;;7.50;1.83;;;8.40;99.90;;;;;;5114270;28;20518;-70
2022/01/27 11:07:56;;;;;;;8.80;2.22;;;8.30;99.90;;;;;;5113345;28;20044;-71
2022/01/27 11:10:21;;;;;;;10.40;2.25;;;8.60;99.90;;;;;;5095640;28;20051;-73
2022/01/27 11:12:49;;;;;;;9.60;1.98;;;8.60;99.90;;;;;;5112172;28;20551;-74
2022/01/27 11:15:17;;;;;;;10.68;2.15;;;8.50;99.90;;;;;;5112816;28;20043;-72
2022/01/27 11:17:45;;;;;;;11.45;2.25;;;8.60;99.90;;;;;;5111842;28;20043;-73
2022/01/27 11:20:27;;;;;;;10.15;2.42;;;8.60;99.90;;;;;;5111886;28;20051;-72
2022/01/27 11:28:06;;;;;;;12.38;2.38;;;8.90;99.90;;;;;;5111766;28;20044;-76
2022/01/27 11:30:51;;;;;;;11.23;2.17;;;9.00;99.90;;;;;;5111754;28;20044;-74
2022/01/27 11:33:18;;;;;;;9.98;1.70;;;8.60;99.90;;;;;;5117137;28;20479;-75
2022/01/27 11:35:44;;;;;;;13.57;2.15;;;8.80;99.90;;;;;;5100313;28;20043;-72
2022/01/27 11:38:11;;;;;;;11.52;1.80;;;8.70;99.90;;;;;;5117527;28;20035;-74
2022/01/27 11:40:46;;;;;;;9.43;1.90;;;8.90;99.90;;;;;;5099274;28;20116;-73
2022/01/27 11:43:17;;;;;;;10.40;1.88;;;8.80;99.90;;;;;;5099108;28;20134;-71
2022/01/27 11:45:48;;;;;;;11.98;1.80;;;9.00;99.90;;;;;;5116648;28;20047;-77
2022/01/27 11:48:22;;;;;;;8.77;1.90;;;8.90;99.90;;;;;;5115721;28;20046;-74
2022/01/27 11:50:55;;;;;;;11.48;2.45;;;8.90;99.90;;;;;;5114971;28;20064;-72
2022/01/27 11:54:01;;;;;;;15.35;2.08;;;8.90;99.90;;;;;;5116100;28;20127;-71
2022/01/27 11:56:27;;;;;;;9.90;2.25;;;9.00;99.90;;;;;;5082480;28;20056;-75
2022/01/27 11:58:58;;;;;;;13.25;2.00;;;9.20;99.90;;;;;;5115421;28;20097;-72
2022/01/27 12:01:37;;;;;;;12.25;1.95;;;9.00;99.90;;;;;;5116864;28;20478;-76
2022/01/27 12:04:06;;;;;;;12.13;1.80;;;9.00;99.90;;;;;;5116691;28;20126;-74
2022/01/27 12:06:48;;;;;;;13.35;2.20;;;9.00;99.90;;;;;;5116466;28;20110;-77
2022/01/27 12:09:19;;;;;;;10.50;1.83;;;9.00;99.90;;;;;;5116145;28;20130;-72
2022/01/27 12:11:50;;;;;;;9.70;2.33;;;8.90;99.90;;;;;;5115098;28;20100;-72
2022/01/27 12:14:26;;;;;;;13.38;1.63;;;8.90;99.90;;;;;;5117020;28;20035;-75
2022/01/27 12:17:07;;;;;;;12.80;1.65;;;8.90;99.90;;;;;;5116356;28;20059;-74
2022/01/27 12:19:59;;;;;;;14.30;2.78;;;8.90;99.90;;;;;;5114534;28;20471;-74
2022/01/27 12:22:49;;;;;;;9.85;2.03;;;8.90;99.90;;;;;;5116087;28;20420;-74
2022/01/27 12:25:16;;;;;;;9.70;1.67;;;8.70;99.90;;;;;;5115235;28;20052;-72
2022/01/27 12:27:54;;;;;;;12.85;2.08;;;8.90;99.90;;;;;;5098981;28;20051;-74
2022/01/27 12:30:20;;;;;;;15.10;1.65;;;9.10;99.90;;;;;;5115797;28;20055;-73
2022/01/27 12:32:46;;;;;;;12.88;1.88;;;8.80;99.90;;;;;;5115291;28;20090;-74
2022/01/27 12:35:15;;;;;;;10.45;1.85;;;8.90;99.90;;;;;;5115046;28;20050;-73
2022/01/27 12:37:51;;;;;;;13.30;2.08;;;8.90;99.90;;;;;;5097726;28;20506;-73
2022/01/27 12:40:26;;;;;;;11.93;1.88;;;9.20;99.90;;;;;;5115650;28;20093;-74
2022/01/27 12:43:02;;;;;;;10.88;2.33;;;8.90;99.90;;;;;;5114462;28;20051;-74
2022/01/27 12:45:32;;;;;;;18.25;2.72;;;8.90;99.90;;;;;;5115853;28;20050;-73
2022/01/27 12:48:03;;;;;;;9.70;1.92;;;9.00;99.90;;;;;;5115017;28;20505;-75
2022/01/27 12:50:29;;;;;;;12.40;2.20;;;9.00;99.90;;;;;;5114314;28;20135;-72
2022/01/27 12:53:00;;;;;;;12.48;1.63;;;9.00;99.90;;;;;;5114793;28;20471;-73
2022/01/27 12:55:34;;;;;;;7.05;1.27;;;8.80;99.90;;;;;;5114914;28;20047;-72
2022/01/27 12:58:01;;;;;;;9.95;2.15;;;8.90;99.90;;;;;;5116180;28;20048;-71
2022/01/27 13:00:28;;;;;;;12.20;1.58;;;8.80;99.90;;;;;;5114218;28;20508;-73
2022/01/27 13:03:02;;;;;;;13.15;2.42;;;8.90;99.90;;;;;;5114421;28;20082;-71
2022/01/27 13:05:39;;;;;;;14.38;1.92;;;9.00;99.90;;;;;;5114734;28;20066;-73
2022/01/27 13:08:10;;;;;;;14.85;1.98;;;8.80;99.90;;;;;;5115979;28;20042;-72
2022/01/27 13:10:45;;;;;;;13.45;2.05;;;8.90;99.90;;;;;;5113723;28;20051;-70
2022/01/27 13:13:17;;;;;;;14.25;2.00;;;9.00;99.90;;;;;;5114975;28;20104;-74
2022/01/27 13:15:44;;;;;;;14.40;2.13;;;8.90;99.90;;;;;;5114425;28;20094;-72
2022/01/27 13:18:17;;;;;;;13.93;1.92;;;8.70;99.90;;;;;;5115590;28;20546;-70
2022/01/27 13:20:46;;;;;;;13.30;2.08;;;8.80;99.90;;;;;;5115427;28;20048;-71
2022/01/27 13:25:47;;;;;;;10.25;1.60;;;8.90;99.90;;;;;;5097683;28;20055;-74
2022/01/27 13:28:23;;;;;;;13.63;1.98;;;8.80;99.90;;;;;;5114975;28;20043;-74
2022/01/27 13:30:55;;;;;;;16.70;2.28;;;8.90;99.90;;;;;;5113771;28;20044;-73
2022/01/27 13:33:23;;;;;;;14.30;2.03;;;8.80;99.90;;;;;;5114338;28;20055;-70
2022/01/27 13:35:51;;;;;;;15.85;1.70;;;8.90;99.90;;;;;;5115417;28;20044;-73
2022/01/27 13:38:25;;;;;;;13.48;2.00;;;8.90;99.90;;;;;;5114741;28;20051;-74
2022/01/27 13:41:16;;;;;;;12.80;1.63;;;8.90;99.90;;;;;;5115983;28;20043;-71
2022/01/27 13:43:46;;;;;;;13.00;1.60;;;8.90;99.90;;;;;;5115594;28;20086;-74
2022/01/27 13:46:36;;;;;;;11.40;1.48;;;8.90;99.90;;;;;;5115711;28;20043;-80
2022/01/27 13:49:20;;;;;;;9.40;1.40;;;8.90;99.90;;;;;;5114829;28;20091;-73